Time;durP1;ratioP1;P1;durP2;ratioP2;P2;SDS_P1;SDS_P2;PMS_P1;PMS_P2;Temp;Humidity;BMP_temperature;BMP_pressure;BME280_temperature;BME280_humidity;BME280_pressure;Samples;Min_cycle;Max_cycle;Signal;HPM_P1;HPM_P2
2024/02/10 00:00:15;;;;;;;13.18;4.68;;;;;;;15.06;73.13;98538.81;5031362;28;20522;-49
2024/02/10 00:02:42;;;;;;;10.77;4.57;;;;;;;15.41;71.31;98532.06;5031191;28;20124;-49
2024/02/10 00:05:08;;;;;;;12.02;4.70;;;;;;;15.50;71.18;98533.41;5031437;28;20036;-49
2024/02/10 00:07:33;;;;;;;13.02;4.63;;;;;;;15.51;71.19;98532.50;5031487;28;20038;-50
2024/02/10 00:09:59;;;;;;;13.40;4.63;;;;;;;15.42;71.41;98537.25;5030822;28;20030;-48
2024/02/10 00:12:24;;;;;;;16.17;4.60;;;;;;;15.56;70.90;98530.56;5031290;28;20403;-48
2024/02/10 00:14:50;;;;;;;11.50;4.60;;;;;;;15.56;70.71;98534.03;5031040;28;20106;-48
2024/02/10 00:17:15;;;;;;;14.27;4.32;;;;;;;15.62;70.67;98532.91;5031254;28;20037;-48
2024/02/10 00:19:46;;;;;;;10.98;4.35;;;;;;;15.62;70.29;98532.91;5030688;28;20051;-50
2024/02/10 00:22:12;;;;;;;10.55;4.25;;;;;;;15.65;70.35;98533.66;5029353;28;20091;-47
2024/02/10 00:24:38;;;;;;;13.23;4.38;;;;;;;15.65;70.28;98535.44;5031597;28;20447;-47
2024/02/10 00:27:04;;;;;;;12.80;4.22;;;;;;;15.58;70.47;98533.97;5030964;28;20040;-48
2024/02/10 00:29:33;;;;;;;9.93;4.47;;;;;;;15.59;70.46;98538.31;5030552;28;20033;-48
2024/02/10 00:31:58;;;;;;;13.02;4.45;;;;;;;15.58;70.46;98533.97;5030458;28;20171;-49
2024/02/10 00:34:29;;;;;;;9.52;4.50;;;;;;;15.57;70.74;98521.75;5031331;28;20083;-49
2024/02/10 00:36:54;;;;;;;10.80;4.55;;;;;;;15.65;70.42;98530.16;5030624;28;20041;-48
2024/02/10 00:39:20;;;;;;;12.65;4.45;;;;;;;15.55;70.62;98527.13;5031175;28;20025;-48
2024/02/10 00:41:45;;;;;;;11.18;4.35;;;;;;;15.70;70.28;98522.94;5035232;28;20124;-52
2024/02/10 00:44:12;;;;;;;11.18;4.30;;;;;;;15.62;70.45;98525.91;5033144;28;20029;-49
2024/02/10 00:46:38;;;;;;;9.88;4.47;;;;;;;15.47;71.01;98523.06;5030883;28;20128;-51
2024/02/10 00:49:04;;;;;;;12.23;4.90;;;;;;;15.52;70.71;98528.97;5030114;28;20095;-47
2024/02/10 00:51:30;;;;;;;10.32;4.25;;;;;;;15.61;70.36;98526.00;5030830;28;20500;-50
2024/02/10 00:53:56;;;;;;;13.23;4.65;;;;;;;15.46;70.85;98521.34;5030706;28;20569;-48
2024/02/10 00:56:21;;;;;;;11.70;4.50;;;;;;;15.49;70.89;98524.69;5031001;28;20041;-51
2024/02/10 00:58:48;;;;;;;9.48;4.47;;;;;;;15.57;70.49;98527.88;5029756;28;20044;-49
2024/02/10 01:01:20;;;;;;;12.18;4.28;;;;;;;15.54;70.75;98525.41;5030694;28;20574;-49
2024/02/10 01:03:45;;;;;;;8.50;4.00;;;;;;;15.44;71.00;98527.53;5029856;28;20045;-51
2024/02/10 01:06:12;;;;;;;11.23;4.00;;;;;;;15.51;71.00;98524.63;5030449;28;20034;-49
2024/02/10 01:08:40;;;;;;;10.43;4.18;;;;;;;15.53;70.77;98528.94;5030058;28;20747;-52
2024/02/10 01:11:11;;;;;;;12.73;3.97;;;;;;;15.50;71.02;98531.66;5029599;28;20064;-48
2024/02/10 01:13:37;;;;;;;10.25;3.90;;;;;;;15.61;70.60;98536.50;5030211;28;20037;-51
2024/02/10 01:16:02;;;;;;;7.70;3.70;;;;;;;15.54;70.96;98530.66;5029835;28;20030;-49
2024/02/10 01:18:27;;;;;;;11.88;4.00;;;;;;;15.54;70.71;98541.16;5029565;28;20033;-49
2024/02/10 01:20:53;;;;;;;8.52;3.53;;;;;;;15.36;71.91;98539.28;5029842;28;20037;-47
2024/02/10 01:23:18;;;;;;;7.20;3.40;;;;;;;15.42;71.92;98537.25;5030076;28;20048;-49
2024/02/10 01:25:44;;;;;;;10.82;3.80;;;;;;;15.28;72.30;98536.13;5029989;28;20061;-50
2024/02/10 01:28:10;;;;;;;8.05;3.65;;;;;;;15.34;72.06;98541.97;5029790;28;20086;-50
2024/02/10 01:30:35;;;;;;;8.77;3.40;;;;;;;15.19;73.02;98532.13;5030142;28;20120;-50
2024/02/10 01:33:01;;;;;;;9.30;3.28;;;;;;;15.34;72.37;98536.72;5029724;28;20116;-51
2024/02/10 01:35:26;;;;;;;8.48;3.40;;;;;;;15.33;72.12;98537.63;5028893;28;20124;-51
2024/02/10 01:37:51;;;;;;;8.50;3.53;;;;;;;15.29;72.45;98536.06;5029514;28;20042;-52
2024/02/10 01:40:17;;;;;;;8.48;3.30;;;;;;;15.31;72.32;98536.00;5028558;28;20053;-51
2024/02/10 01:42:44;;;;;;;8.90;3.10;;;;;;;15.26;72.70;98532.72;5029648;28;20033;-48
2024/02/10 01:45:11;;;;;;;6.53;3.38;;;;;;;15.23;72.60;98540.72;5030242;28;20051;-50
2024/02/10 01:47:44;;;;;;;7.25;3.00;;;;;;;15.10;72.95;98539.53;5029757;28;20029;-51
2024/02/10 01:50:11;;;;;;;7.05;3.33;;;;;;;15.14;73.25;98541.09;5029334;28;20029;-48
2024/02/10 01:52:38;;;;;;;7.93;3.30;;;;;;;15.09;73.27;98541.31;5029676;28;20037;-49
2024/02/10 01:55:04;;;;;;;8.38;3.25;;;;;;;15.08;73.07;98539.59;5029444;28;20041;-48
2024/02/10 01:57:30;;;;;;;9.23;3.30;;;;;;;15.10;73.14;98548.28;5029507;28;20060;-49
2024/02/10 01:59:59;;;;;;;6.63;3.05;;;;;;;15.14;72.85;98543.72;5029189;28;20041;-49
2024/02/10 02:02:25;;;;;;;7.38;3.15;;;;;;;15.12;73.00;98540.34;5027903;28;20029;-48
2024/02/10 02:04:51;;;;;;;6.55;3.15;;;;;;;15.13;72.90;98547.25;5029367;28;20572;-48
2024/02/10 02:07:16;;;;;;;6.60;3.08;;;;;;;15.13;73.13;98552.50;5029792;28;20060;-48
2024/02/10 02:09:43;;;;;;;6.72;3.03;;;;;;;14.90;73.94;98542.97;5029478;28;20072;-47
2024/02/10 02:12:08;;;;;;;8.25;3.30;;;;;;;15.06;73.63;98551.09;5030392;28;20029;-49
2024/02/10 02:14:38;;;;;;;10.63;3.38;;;;;;;15.05;73.84;98547.63;5029769;28;20040;-52
2024/02/10 02:17:04;;;;;;;7.25;3.58;;;;;;;15.10;73.78;98552.66;5028988;28;20037;-50
2024/02/10 02:19:32;;;;;;;11.73;3.35;;;;;;;15.18;73.67;98545.34;5028776;28;20037;-47
2024/02/10 02:22:01;;;;;;;8.95;3.35;;;;;;;15.19;73.55;98553.13;5029711;28;20087;-49
2024/02/10 02:24:28;;;;;;;9.00;3.45;;;;;;;15.16;73.86;98547.16;5033414;28;20565;-49
2024/02/10 02:26:54;;;;;;;10.50;3.58;;;;;;;15.22;73.57;98541.66;5033166;28;20079;-50
2024/02/10 02:29:20;;;;;;;9.32;3.38;;;;;;;15.16;73.57;98545.38;5033118;28;20535;-48
2024/02/10 02:31:45;;;;;;;10.32;3.50;;;;;;;15.24;73.49;98548.56;5032987;28;20044;-49
2024/02/10 02:34:10;;;;;;;6.80;3.25;;;;;;;15.30;72.86;98545.66;5033774;28;20033;-48
2024/02/10 02:36:36;;;;;;;8.90;3.53;;;;;;;15.21;73.21;98542.56;5033448;28;20515;-49
2024/02/10 02:39:01;;;;;;;9.10;3.60;;;;;;;15.18;73.05;98542.72;5032971;28;20036;-48
2024/02/10 02:41:27;;;;;;;7.35;3.47;;;;;;;15.11;73.38;98542.09;5033356;28;20511;-47
2024/02/10 02:43:52;;;;;;;10.00;3.70;;;;;;;15.06;73.87;98538.81;5033255;28;20038;-48
2024/02/10 02:46:18;;;;;;;6.65;3.38;;;;;;;15.06;73.94;98540.59;5033180;28;20099;-50
2024/02/10 02:48:43;;;;;;;10.02;3.58;;;;;;;15.10;73.84;98527.28;5032152;28;20037;-49
2024/02/10 02:51:09;;;;;;;10.15;3.35;;;;;;;15.07;73.96;98529.16;5033162;28;20040;-51
2024/02/10 02:53:34;;;;;;;10.07;3.72;;;;;;;15.12;74.00;98527.22;5033707;28;20025;-50
2024/02/10 02:55:59;;;;;;;8.07;3.42;;;;;;;15.06;73.60;98530.97;5032935;28;20029;-48
2024/02/10 02:58:24;;;;;;;8.18;3.60;;;;;;;14.95;73.99;98520.88;5032910;28;20034;-49
2024/02/10 03:00:50;;;;;;;9.95;3.67;;;;;;;14.94;74.28;98528.84;5048322;28;20049;-49
2024/02/10 03:03:16;;;;;;;9.57;4.38;;;;;;;14.67;75.02;98528.19;5031208;28;20041;-51
2024/02/10 03:05:42;;;;;;;9.70;3.53;;;;;;;14.87;74.61;98524.75;5033212;28;20053;-48
2024/02/10 03:08:07;;;;;;;9.45;3.70;;;;;;;14.91;74.42;98524.56;5033228;28;20535;-48
2024/02/10 03:10:33;;;;;;;8.05;3.65;;;;;;;14.86;75.01;98523.91;5033061;28;20046;-50
2024/02/10 03:12:58;;;;;;;10.18;3.92;;;;;;;14.68;75.38;98519.41;5032956;28;20466;-49
2024/02/10 03:15:24;;;;;;;7.55;3.60;;;;;;;14.89;75.07;98522.91;5033045;28;20172;-53
2024/02/10 03:17:50;;;;;;;9.35;3.60;;;;;;;14.88;74.99;98516.81;5032419;28;20053;-52
2024/02/10 03:20:23;;;;;;;8.35;3.55;;;;;;;14.87;74.58;98517.75;5031796;28;20040;-47
2024/02/10 03:22:54;;;;;;;8.60;3.60;;;;;;;14.89;74.68;98520.28;5032329;28;20037;-48
2024/02/10 03:25:21;;;;;;;8.77;3.80;;;;;;;14.87;74.65;98519.50;5033575;28;20029;-52
2024/02/10 03:27:46;;;;;;;11.80;3.50;;;;;;;14.63;75.36;98516.13;5031943;28;20029;-52
2024/02/10 03:30:15;;;;;;;7.10;3.53;;;;;;;14.80;75.03;98520.69;5031785;28;20048;-51
2024/02/10 03:32:40;;;;;;;11.25;3.55;;;;;;;14.79;75.11;98518.97;5031645;28;20471;-49
2024/02/10 03:35:06;;;;;;;8.25;3.40;;;;;;;14.80;75.20;98520.69;5031731;28;20033;-47
2024/02/10 03:37:31;;;;;;;9.10;3.47;;;;;;;14.87;74.48;98516.88;5047226;28;20025;-47
2024/02/10 03:39:59;;;;;;;7.63;3.58;;;;;;;14.83;74.91;98520.53;5030178;28;20037;-51
2024/02/10 03:42:25;;;;;;;7.80;3.80;;;;;;;14.87;74.56;98515.13;5032145;28;20029;-51
2024/02/10 03:44:54;;;;;;;10.75;3.83;;;;;;;14.73;75.47;98521.84;5031590;28;20127;-47
2024/02/10 03:47:19;;;;;;;12.73;4.20;;;;;;;14.78;75.59;98525.13;5031474;28;20030;-48
2024/02/10 03:49:47;;;;;;;8.70;3.60;;;;;;;14.78;75.70;98518.09;5031143;28;20092;-52
2024/02/10 03:52:14;;;;;;;8.93;3.97;;;;;;;14.95;75.48;98518.25;5032079;28;20096;-48
2024/02/10 03:54:40;;;;;;;10.63;3.72;;;;;;;14.90;75.23;98522.00;5031539;28;20037;-50
2024/02/10 03:57:06;;;;;;;10.35;3.42;;;;;;;15.00;75.24;98523.34;5031717;28;20033;-50
2024/02/10 03:59:31;;;;;;;8.38;3.63;;;;;;;14.95;75.39;98525.28;5031219;28;20029;-50
2024/02/10 04:01:56;;;;;;;11.18;3.85;;;;;;;14.92;75.58;98530.66;5030981;28;20497;-49
2024/02/10 04:04:21;;;;;;;9.18;3.88;;;;;;;15.01;75.34;98525.88;5031766;28;20092;-53
2024/02/10 04:06:47;;;;;;;8.80;3.63;;;;;;;14.99;75.37;98527.72;5031045;28;20036;-52
2024/02/10 04:09:12;;;;;;;9.20;3.83;;;;;;;15.04;74.87;98532.78;5031067;28;20492;-49
2024/02/10 04:11:37;;;;;;;8.70;3.70;;;;;;;15.01;74.83;98532.91;5031260;28;20120;-52
2024/02/10 04:14:03;;;;;;;7.78;3.63;;;;;;;15.02;75.13;98524.09;5031269;28;20680;-51
2024/02/10 04:16:28;;;;;;;7.78;3.75;;;;;;;15.00;75.13;98528.59;5031513;28;20060;-50
2024/02/10 04:18:54;;;;;;;10.13;3.70;;;;;;;14.99;75.16;98527.72;5030231;28;20045;-50
2024/02/10 04:21:20;;;;;;;9.82;3.55;;;;;;;14.88;75.53;98536.97;5031253;28;20060;-49
2024/02/10 04:23:45;;;;;;;10.07;3.72;;;;;;;14.85;75.71;98532.69;5030859;28;20069;-49
2024/02/10 04:26:10;;;;;;;9.57;4.00;;;;;;;15.02;75.14;98521.47;5031353;28;20060;-49
2024/02/10 04:28:36;;;;;;;12.40;3.95;;;;;;;15.03;75.22;98528.44;5030810;28;20041;-48
2024/02/10 04:31:02;;;;;;;8.15;3.70;;;;;;;15.00;75.04;98539.09;5030978;28;20060;-47
2024/02/10 04:33:27;;;;;;;7.55;3.30;;;;;;;15.02;74.86;98534.59;5030258;28;20407;-50
2024/02/10 04:35:53;;;;;;;9.40;3.80;;;;;;;15.06;74.62;98541.44;5046191;28;20091;-51
2024/02/10 04:38:18;;;;;;;9.77;3.65;;;;;;;15.08;74.58;98539.59;5030899;28;20124;-48
2024/02/10 04:40:45;;;;;;;8.50;3.75;;;;;;;15.01;75.06;98540.75;5030775;28;20061;-50
2024/02/10 04:43:10;;;;;;;9.05;3.78;;;;;;;15.03;74.41;98539.78;5030942;28;20114;-51
2024/02/10 04:45:36;;;;;;;12.20;3.58;;;;;;;15.14;74.32;98531.47;5030625;28;20030;-52
2024/02/10 04:48:08;;;;;;;10.30;3.90;;;;;;;15.01;74.41;98540.75;5031251;28;20484;-51
2024/02/10 04:50:34;;;;;;;11.38;3.90;;;;;;;14.98;74.57;98533.88;5031954;28;20499;-49
2024/02/10 04:53:00;;;;;;;8.02;3.30;;;;;;;15.13;73.92;98542.88;5030969;28;20055;-48
2024/02/10 04:55:26;;;;;;;9.10;3.50;;;;;;;14.96;74.44;98542.72;5031053;28;20083;-50
2024/02/10 04:57:53;;;;;;;10.35;4.10;;;;;;;14.94;74.00;98542.78;5029933;28;20037;-49
2024/02/10 05:00:20;;;;;;;6.90;3.50;;;;;;;14.86;74.26;98542.28;5030092;28;20030;-49
2024/02/10 05:02:47;;;;;;;9.52;3.72;;;;;;;14.89;73.87;98546.50;5030071;28;20059;-52
2024/02/10 05:05:14;;;;;;;13.45;3.90;;;;;;;14.72;74.30;98546.34;5030473;28;20041;-50
2024/02/10 05:07:45;;;;;;;9.07;3.60;;;;;;;14.79;74.59;98542.56;5029952;28;20040;-50
2024/02/10 05:10:11;;;;;;;12.90;3.95;;;;;;;14.90;74.49;98548.22;5030055;28;20061;-49
2024/02/10 05:12:39;;;;;;;12.07;3.42;;;;;;;14.84;74.76;98551.09;5030210;28;20036;-48
2024/02/10 05:15:08;;;;;;;7.35;3.50;;;;;;;14.88;74.66;98553.53;5030169;28;20123;-52
2024/02/10 05:17:33;;;;;;;8.43;3.63;;;;;;;14.92;74.35;98555.13;5029913;28;20045;-48
2024/02/10 05:20:10;;;;;;;8.10;3.47;;;;;;;14.87;74.44;98551.00;5044594;28;20041;-48
2024/02/10 05:22:36;;;;;;;11.52;3.97;;;;;;;14.86;74.25;98557.16;5029626;28;20037;-51
2024/02/10 05:25:03;;;;;;;9.30;3.58;;;;;;;14.89;74.22;98560.50;5029740;28;20040;-50
2024/02/10 05:27:28;;;;;;;8.98;3.70;;;;;;;14.86;74.51;98558.00;5029711;28;20029;-48
2024/02/10 05:29:55;;;;;;;8.02;3.60;;;;;;;14.89;74.44;98562.25;5029230;28;20033;-48
2024/02/10 05:32:22;;;;;;;8.00;3.20;;;;;;;14.74;74.86;98568.13;5029851;28;20229;-46
2024/02/10 05:34:48;;;;;;;9.60;3.88;;;;;;;14.80;74.78;98565.28;5029567;28;20037;-50
2024/02/10 05:37:14;;;;;;;8.60;3.78;;;;;;;14.86;74.22;98567.66;5029756;28;20040;-51
2024/02/10 05:39:40;;;;;;;8.60;3.50;;;;;;;14.98;74.45;98572.38;5028853;28;20075;-51
2024/02/10 05:42:06;;;;;;;8.95;3.80;;;;;;;14.87;74.49;98577.22;5029667;28;20499;-52
2024/02/10 05:44:32;;;;;;;9.05;3.42;;;;;;;14.96;74.40;98580.31;5028844;28;20053;-50
2024/02/10 05:47:00;;;;;;;8.55;3.67;;;;;;;15.00;73.98;98579.25;5030006;28;20037;-51
2024/02/10 05:49:26;;;;;;;6.55;3.72;;;;;;;14.95;74.41;98583.84;5029748;28;20125;-51
2024/02/10 05:51:51;;;;;;;7.72;3.40;;;;;;;15.08;74.06;98585.97;5029549;28;20124;-48
2024/02/10 05:54:16;;;;;;;7.97;3.17;;;;;;;14.98;73.97;98575.88;5029849;28;20557;-51
2024/02/10 05:56:44;;;;;;;8.50;3.20;;;;;;;15.06;73.79;98572.94;5029059;28;20500;-50
2024/02/10 05:59:11;;;;;;;10.10;3.45;;;;;;;14.98;73.88;98573.25;5029695;28;20420;-47
2024/02/10 06:01:37;;;;;;;9.90;3.33;;;;;;;15.06;73.75;98578.19;5029700;28;20500;-50
2024/02/10 06:04:08;;;;;;;10.00;3.35;;;;;;;14.93;74.01;98585.72;5029367;28;20040;-48
2024/02/10 06:06:33;;;;;;;10.18;3.50;;;;;;;15.06;73.52;98588.69;5030830;28;20107;-49
2024/02/10 06:08:59;;;;;;;7.95;3.50;;;;;;;15.06;73.70;98590.47;5029296;28;20500;-50
2024/02/10 06:11:25;;;;;;;6.10;3.40;;;;;;;15.11;73.81;98591.97;5031188;28;20034;-49
2024/02/10 06:13:51;;;;;;;8.18;3.47;;;;;;;15.06;73.49;98599.19;5030121;28;20034;-48
2024/02/10 06:16:17;;;;;;;8.52;3.65;;;;;;;15.08;73.83;98597.31;5029699;28;20033;-51
2024/02/10 06:18:42;;;;;;;7.43;3.33;;;;;;;15.18;73.43;98601.31;5028844;28;20408;-48
2024/02/10 06:21:09;;;;;;;11.05;3.53;;;;;;;15.06;73.70;98598.31;5029491;28;20037;-47
2024/02/10 06:23:35;;;;;;;9.57;3.80;;;;;;;15.09;73.45;98604.28;5026949;28;20045;-48
2024/02/10 06:26:00;;;;;;;8.55;3.58;;;;;;;15.14;73.16;98610.19;5029355;28;20029;-49
2024/02/10 06:28:25;;;;;;;12.13;3.60;;;;;;;15.19;73.24;98612.63;5028925;28;20033;-50
2024/02/10 06:30:52;;;;;;;9.93;3.50;;;;;;;15.11;73.11;98607.72;5044073;28;20049;-50
2024/02/10 06:33:26;;;;;;;8.50;3.72;;;;;;;15.15;73.09;98611.06;5029272;28;20037;-49
2024/02/10 06:35:53;;;;;;;11.02;3.58;;;;;;;15.12;73.04;98613.81;5029059;28;20123;-49
2024/02/10 06:38:19;;;;;;;8.52;4.00;;;;;;;15.09;72.96;98621.81;5029415;28;20083;-50
2024/02/10 06:40:44;;;;;;;8.02;3.22;;;;;;;15.12;72.55;98616.44;5028891;28;20042;-51
2024/02/10 06:43:12;;;;;;;7.88;3.42;;;;;;;15.07;73.17;98621.84;5029339;28;20499;-49
2024/02/10 06:45:41;;;;;;;8.27;3.53;;;;;;;15.12;72.78;98625.19;5029762;28;20025;-50
2024/02/10 06:48:11;;;;;;;11.25;3.60;;;;;;;15.00;72.71;98618.63;5009202;28;20044;-49
2024/02/10 06:50:38;;;;;;;10.68;3.70;;;;;;;14.92;72.67;98628.59;5009732;28;20500;-49
2024/02/10 06:53:04;;;;;;;8.13;3.88;;;;;;;14.85;72.43;98637.63;5009146;28;20069;-48
2024/02/10 06:55:29;;;;;;;9.38;3.90;;;;;;;14.85;72.61;98650.72;5012366;28;20034;-54
2024/02/10 06:57:58;;;;;;;9.95;3.50;;;;;;;14.69;74.11;98639.13;5014209;28;20037;-54
2024/02/10 07:00:24;;;;;;;8.38;3.60;;;;;;;14.86;73.55;98647.19;5009376;28;20032;-52
2024/02/10 07:02:51;;;;;;;7.60;3.53;;;;;;;14.85;73.28;98648.13;5008977;28;20496;-50
2024/02/10 07:05:19;;;;;;;7.95;3.47;;;;;;;14.85;73.25;98653.34;5009700;28;20034;-47
2024/02/10 07:07:51;;;;;;;8.05;3.33;;;;;;;14.78;73.65;98654.50;5008694;28;20042;-50
2024/02/10 07:10:19;;;;;;;10.55;3.70;;;;;;;14.84;73.53;98662.13;5012485;28;20038;-49
2024/02/10 07:12:46;;;;;;;9.57;3.60;;;;;;;14.90;73.35;98661.03;5013942;28;20041;-49
2024/02/10 07:15:13;;;;;;;7.68;3.72;;;;;;;14.86;73.31;98656.84;5013774;28;20036;-51
2024/02/10 07:17:43;;;;;;;7.55;3.95;;;;;;;14.84;73.55;98659.50;5013162;28;20034;-53
2024/02/10 07:20:18;;;;;;;9.50;3.80;;;;;;;14.89;73.51;98661.94;5012512;28;20029;-52
2024/02/10 07:22:56;;;;;;;7.85;3.90;;;;;;;14.82;73.68;98660.50;5009923;28;20525;-53
2024/02/10 07:25:22;;;;;;;8.13;3.58;;;;;;;14.90;73.44;98664.53;5011734;28;20034;-49
2024/02/10 07:27:50;;;;;;;8.43;3.50;;;;;;;14.91;73.23;98668.00;5012352;28;20093;-52
2024/02/10 07:30:17;;;;;;;9.65;3.63;;;;;;;14.92;73.53;98669.72;5012380;28;20060;-47
2024/02/10 07:32:44;;;;;;;9.18;3.95;;;;;;;14.85;73.15;98669.09;5012046;28;20041;-51
2024/02/10 07:35:10;;;;;;;10.85;3.75;;;;;;;15.03;73.00;98662.28;5012740;28;20029;-48
2024/02/10 07:37:35;;;;;;;8.98;3.65;;;;;;;14.99;73.17;98664.16;5012088;28;20195;-49
2024/02/10 07:40:01;;;;;;;9.18;3.90;;;;;;;15.05;72.87;98665.69;5011853;28;20037;-48
2024/02/10 07:42:27;;;;;;;8.20;3.60;;;;;;;15.12;72.71;98676.81;5012538;28;20397;-49
2024/02/10 07:44:55;;;;;;;10.88;3.83;;;;;;;15.09;72.63;98674.28;5013307;28;20124;-55
2024/02/10 07:47:24;;;;;;;7.38;3.80;;;;;;;15.15;72.72;98674.03;5012288;28;20037;-50
2024/02/10 07:49:52;;;;;;;9.40;4.00;;;;;;;15.06;72.80;98677.06;5011614;28;20034;-48
2024/02/10 07:52:21;;;;;;;9.30;3.97;;;;;;;15.19;72.65;98680.88;5012283;28;20029;-47
2024/02/10 07:54:49;;;;;;;9.05;3.88;;;;;;;15.16;72.65;98679.25;5011548;28;20034;-50
2024/02/10 07:57:19;;;;;;;10.65;3.38;;;;;;;15.17;72.59;98685.34;5012274;28;20051;-51
2024/02/10 07:59:47;;;;;;;8.23;3.80;;;;;;;15.06;72.74;98691.03;5015106;28;20567;-51
2024/02/10 08:02:16;;;;;;;9.68;3.83;;;;;;;15.10;72.61;98689.97;5019910;28;20088;-49
2024/02/10 08:04:42;;;;;;;8.98;3.70;;;;;;;15.19;72.21;98688.75;5012614;28;20042;-49
2024/02/10 08:07:08;;;;;;;8.10;4.00;;;;;;;15.20;71.83;98693.09;5011949;28;20397;-51
2024/02/10 08:09:33;;;;;;;8.30;3.90;;;;;;;15.16;72.01;98694.13;5011480;28;20045;-50
2024/02/10 08:11:58;;;;;;;8.23;3.63;;;;;;;14.99;71.33;98687.78;5012105;28;20069;-49
2024/02/10 08:14:25;;;;;;;8.55;3.75;;;;;;;15.13;71.81;98689.84;5012723;28;20515;-47
2024/02/10 08:16:51;;;;;;;6.28;3.42;;;;;;;15.19;71.66;98692.22;5010698;28;20042;-47
2024/02/10 08:19:18;;;;;;;5.93;3.33;;;;;;;15.20;71.41;98688.69;5011935;28;20504;-48
2024/02/10 08:21:44;;;;;;;6.68;4.00;;;;;;;15.22;71.70;98686.88;5012245;28;20048;-49
2024/02/10 08:24:10;;;;;;;7.18;3.72;;;;;;;15.24;71.86;98702.56;5012203;28;20601;-49
2024/02/10 08:26:37;;;;;;;9.88;4.18;;;;;;;15.31;71.71;98696.97;5012154;28;20096;-48
2024/02/10 08:29:03;;;;;;;7.63;3.80;;;;;;;15.34;71.70;98709.16;5010914;28;20038;-51
2024/02/10 08:31:30;;;;;;;8.18;3.50;;;;;;;15.37;71.51;98712.50;5011471;28;20455;-54
2024/02/10 08:33:58;;;;;;;7.53;3.55;;;;;;;15.41;71.60;98711.47;5011042;28;20069;-53
2024/02/10 08:36:26;;;;;;;7.00;3.50;;;;;;;15.47;71.27;98718.25;5011258;28;20030;-50
2024/02/10 08:38:52;;;;;;;7.57;3.78;;;;;;;15.43;71.18;98719.25;5010357;28;20038;-47
2024/02/10 08:41:18;;;;;;;8.23;4.13;;;;;;;15.35;70.86;98724.84;5012126;28;20025;-48
2024/02/10 08:43:49;;;;;;;11.68;4.60;;;;;;;15.35;71.13;98729.25;5010842;28;20042;-49
2024/02/10 08:46:15;;;;;;;7.22;3.92;;;;;;;15.35;71.46;98724.84;5011262;28;20034;-49
2024/02/10 08:48:44;;;;;;;9.80;4.40;;;;;;;15.32;71.67;98724.94;5010020;28;20400;-53
2024/02/10 08:51:13;;;;;;;7.72;4.20;;;;;;;15.33;71.69;98736.31;5010963;28;20125;-49
2024/02/10 08:53:40;;;;;;;8.80;4.38;;;;;;;15.39;71.71;98730.81;5010969;28;20022;-50
2024/02/10 08:56:08;;;;;;;7.95;4.47;;;;;;;15.47;71.38;98736.63;5014815;28;20120;-48
2024/02/10 08:58:34;;;;;;;7.85;3.95;;;;;;;15.52;71.22;98745.19;5021780;28;20072;-49
2024/02/10 09:01:03;;;;;;;10.68;4.40;;;;;;;15.48;71.15;98742.72;5030369;28;20053;-48
2024/02/10 09:03:31;;;;;;;9.65;4.57;;;;;;;15.49;71.00;98744.44;5030194;28;20044;-52
2024/02/10 09:05:56;;;;;;;7.55;4.25;;;;;;;15.38;71.23;98750.97;5030159;28;20037;-51
2024/02/10 09:08:22;;;;;;;8.98;4.30;;;;;;;15.47;71.20;98749.75;5029785;28;20376;-54
2024/02/10 09:10:47;;;;;;;9.27;4.05;;;;;;;15.48;71.22;98748.84;5030057;28;20087;-51
2024/02/10 09:13:13;;;;;;;10.75;4.63;;;;;;;15.57;70.98;98748.50;5030450;28;20026;-48
2024/02/10 09:15:38;;;;;;;10.10;4.47;;;;;;;15.56;71.33;98753.78;5030746;28;20101;-50
2024/02/10 09:18:04;;;;;;;8.70;4.35;;;;;;;15.53;70.84;98759.19;5029730;28;20610;-48
2024/02/10 09:20:32;;;;;;;11.13;4.53;;;;;;;15.69;70.77;98766.38;5030284;28;20528;-49
2024/02/10 09:22:59;;;;;;;8.95;4.53;;;;;;;15.80;70.69;98761.53;5029759;28;20044;-46
2024/02/10 09:25:26;;;;;;;8.63;4.53;;;;;;;15.74;70.38;98768.81;5030423;28;20454;-48
2024/02/10 09:27:51;;;;;;;9.63;4.65;;;;;;;15.80;70.43;98769.41;5029740;28;20043;-48
2024/02/10 09:30:17;;;;;;;7.55;4.40;;;;;;;15.88;70.44;98763.00;5030465;28;20515;-51
2024/02/10 09:32:45;;;;;;;6.75;4.32;;;;;;;15.95;70.26;98769.69;5028905;28;20167;-48
2024/02/10 09:35:11;;;;;;;8.85;4.50;;;;;;;15.92;70.38;98775.09;5030214;28;20491;-52
2024/02/10 09:37:36;;;;;;;8.45;4.20;;;;;;;15.98;69.96;98780.09;5029797;28;20044;-50
2024/02/10 09:40:02;;;;;;;9.32;4.40;;;;;;;15.99;69.83;98781.78;5029253;28;20025;-49
2024/02/10 09:42:30;;;;;;;10.55;4.50;;;;;;;15.87;69.57;98775.28;5030113;28;20033;-51
2024/02/10 09:44:57;;;;;;;9.52;4.50;;;;;;;15.94;69.36;98781.13;5029616;28;20136;-56
2024/02/10 09:47:23;;;;;;;8.38;4.28;;;;;;;16.01;69.15;98778.19;5030036;28;20041;-49
2024/02/10 09:49:51;;;;;;;7.97;4.30;;;;;;;15.95;69.28;98772.34;5029958;28;20033;-48
2024/02/10 09:52:16;;;;;;;10.82;4.30;;;;;;;15.99;69.37;98768.66;5030518;28;20025;-50
2024/02/10 09:54:41;;;;;;;8.65;4.57;;;;;;;15.92;69.58;98772.47;5030094;28;20130;-52
2024/02/10 09:57:11;;;;;;;8.52;4.15;;;;;;;16.10;69.06;98776.97;5030178;28;20111;-49
2024/02/10 09:59:39;;;;;;;9.77;4.35;;;;;;;16.00;69.31;98779.09;5029549;28;20400;-48
2024/02/10 10:02:08;;;;;;;8.07;4.10;;;;;;;16.02;69.42;98782.53;5027791;28;20491;-48
2024/02/10 10:04:33;;;;;;;8.88;4.30;;;;;;;16.10;69.74;98774.34;5030538;28;20083;-50
2024/02/10 10:07:00;;;;;;;10.20;4.47;;;;;;;16.09;69.56;98773.47;5029840;28;20438;-49
2024/02/10 10:09:29;;;;;;;10.45;4.70;;;;;;;16.20;69.70;98771.25;5029500;28;20128;-51
2024/02/10 10:11:55;;;;;;;7.60;4.05;;;;;;;16.33;69.54;98771.56;5029158;28;20671;-50
2024/02/10 10:14:20;;;;;;;12.55;4.32;;;;;;;16.31;69.28;98772.53;5029543;28;20095;-49
2024/02/10 10:16:56;;;;;;;9.15;3.88;;;;;;;16.49;69.16;98777.00;5029086;28;20093;-52
2024/02/10 10:19:22;;;;;;;8.80;4.28;;;;;;;16.57;68.98;98778.38;5029100;28;20558;-49
2024/02/10 10:21:49;;;;;;;7.50;3.92;;;;;;;16.66;69.16;98778.91;5029136;28;20037;-49
2024/02/10 10:24:15;;;;;;;8.32;4.18;;;;;;;17.06;67.53;98785.88;5027652;28;20468;-50
2024/02/10 10:26:41;;;;;;;9.20;4.38;;;;;;;17.08;66.95;98784.03;5029157;28;20156;-51
2024/02/10 10:29:10;;;;;;;8.48;4.13;;;;;;;17.07;66.78;98787.59;5028823;28;20376;-47
2024/02/10 10:31:37;;;;;;;10.43;4.28;;;;;;;17.01;66.99;98780.84;5029296;28;20484;-54
2024/02/10 10:34:06;;;;;;;8.20;4.43;;;;;;;17.13;66.18;98774.13;5028921;28;20112;-47
2024/02/10 10:36:32;;;;;;;8.82;4.20;;;;;;;17.29;65.92;98780.38;5029231;28;20518;-50
2024/02/10 10:39:00;;;;;;;7.88;4.07;;;;;;;17.54;64.55;98777.44;5028069;28;20068;-50
2024/02/10 10:41:26;;;;;;;8.80;4.10;;;;;;;17.39;64.96;98777.25;5029217;28;20104;-50
2024/02/10 10:43:54;;;;;;;10.20;4.30;;;;;;;17.33;65.15;98780.16;5029501;28;20045;-53
2024/02/10 10:46:20;;;;;;;8.45;4.22;;;;;;;17.33;65.01;98777.53;5033219;28;20029;-49
2024/02/10 10:48:48;;;;;;;9.27;4.30;;;;;;;17.33;64.98;98774.91;5032325;28;20407;-49
2024/02/10 10:51:17;;;;;;;9.02;4.20;;;;;;;17.51;64.82;98775.78;5033630;28;20037;-51
2024/02/10 10:53:46;;;;;;;10.02;3.95;;;;;;;17.61;64.47;98776.25;5032863;28;20197;-54
2024/02/10 10:56:15;;;;;;;8.00;4.00;;;;;;;17.86;63.40;98771.50;5033091;28;20030;-48
2024/02/10 10:58:46;;;;;;;8.50;4.20;;;;;;;17.65;63.80;98777.81;5031860;28;20036;-50
2024/02/10 11:01:15;;;;;;;10.45;4.20;;;;;;;17.38;64.06;98774.69;5032938;28;20037;-49
2024/02/10 11:03:42;;;;;;;9.68;4.50;;;;;;;17.64;63.22;98771.69;5032172;28;20101;-51
2024/02/10 11:06:11;;;;;;;10.90;4.47;;;;;;;17.51;63.49;98775.78;5033000;28;20488;-55
2024/02/10 11:08:40;;;;;;;7.72;4.03;;;;;;;17.80;63.02;98777.06;5032790;28;20415;-51
2024/02/10 11:11:08;;;;;;;8.65;4.35;;;;;;;17.90;62.71;98778.31;5033410;28;20033;-50
2024/02/10 11:13:34;;;;;;;8.38;4.13;;;;;;;17.80;62.42;98775.28;5033403;28;20025;-50
2024/02/10 11:16:05;;;;;;;8.43;4.35;;;;;;;17.92;62.54;98765.91;5032487;28;20041;-48
2024/02/10 11:18:34;;;;;;;10.73;4.80;;;;;;;17.34;63.76;98762.59;5031324;28;20037;-48
2024/02/10 11:21:18;;;;;;;10.48;4.53;;;;;;;17.66;62.02;98761.06;5032560;28;20184;-52
2024/02/10 11:24:17;;;;;;;11.13;4.50;;;;;;;17.72;62.34;98747.59;5030228;28;20033;-51
2024/02/10 11:26:44;;;;;;;9.90;4.70;;;;;;;17.86;62.80;98752.19;5031868;28;20037;-49
2024/02/10 11:29:21;;;;;;;9.18;4.57;;;;;;;17.98;62.40;98747.16;5031881;28;20037;-52